createdAt,value
2017-06-08T00:01:19.800Z,4.90
2017-06-08T00:03:54.367Z,5.32
2017-06-08T00:06:28.871Z,5.10
2017-06-08T00:09:03.284Z,5.53
2017-06-08T00:11:37.769Z,5.12
2017-06-08T00:14:13.048Z,5.18
2017-06-08T00:16:47.464Z,5.55
2017-06-08T00:19:21.991Z,5.62
2017-06-08T00:21:56.561Z,5.60
2017-06-08T00:24:30.932Z,6.20
2017-06-08T00:27:05.416Z,6.15
2017-06-08T00:29:40.603Z,6.05
2017-06-08T00:32:15.006Z,5.43
2017-06-08T00:34:49.555Z,5.72
2017-06-08T00:37:24.136Z,5.68
2017-06-08T00:39:58.628Z,5.43
2017-06-08T00:42:33.165Z,4.70
2017-06-08T00:45:07.635Z,7.10
2017-06-08T00:47:42.188Z,5.25
2017-06-08T00:50:16.696Z,5.47
2017-06-08T00:52:51.140Z,5.97
2017-06-08T00:55:25.732Z,4.90
2017-06-08T00:58:00.172Z,4.82
2017-06-08T01:00:34.688Z,5.68
2017-06-08T01:03:10.191Z,5.32
2017-06-08T01:05:44.554Z,5.53
2017-06-08T01:08:18.988Z,4.82
2017-06-08T01:10:53.484Z,5.93
2017-06-08T01:13:28.320Z,5.85
2017-06-08T01:16:02.844Z,5.62
2017-06-08T01:18:37.369Z,5.62
2017-06-08T01:21:12.665Z,5.45
2017-06-08T01:23:47.136Z,6.25
2017-06-08T01:26:22.431Z,6.30
2017-06-08T01:28:57.420Z,5.22
2017-06-08T01:31:31.924Z,5.28
2017-06-08T01:34:06.758Z,5.75
2017-06-08T01:36:41.849Z,6.68
2017-06-08T01:39:16.428Z,6.18
2017-06-08T01:41:50.912Z,6.70
2017-06-08T01:44:25.367Z,5.62
2017-06-08T01:47:00.652Z,6.28
2017-06-08T01:49:35.092Z,5.05
2017-06-08T01:52:09.619Z,6.28
2017-06-08T01:54:43.988Z,5.72
2017-06-08T01:57:18.556Z,5.85
2017-06-08T01:59:53.308Z,6.80
2017-06-08T02:02:27.797Z,5.28
2017-06-08T02:05:02.483Z,7.12
2017-06-08T02:07:37.048Z,6.25
2017-06-08T02:10:11.693Z,6.28
2017-06-08T02:12:46.184Z,6.47
2017-06-08T02:15:20.760Z,5.55
2017-06-08T02:17:55.240Z,5.95
2017-06-08T02:20:29.652Z,6.80
2017-06-08T02:23:04.044Z,6.53
2017-06-08T02:25:38.504Z,6.45
2017-06-08T02:28:13.041Z,6.80
2017-06-08T02:30:47.752Z,6.18
2017-06-08T02:33:22.276Z,6.28
2017-06-08T02:35:57.129Z,7.50
2017-06-08T02:38:31.628Z,6.28
2017-06-08T02:41:06.069Z,5.93
2017-06-08T02:43:40.508Z,5.70
2017-06-08T02:46:14.899Z,6.65
2017-06-08T02:48:49.396Z,6.87
2017-06-08T02:51:24.053Z,7.43
2017-06-08T02:53:58.573Z,6.15
2017-06-08T02:56:33.123Z,6.57
2017-06-08T02:59:07.588Z,6.10
2017-06-08T03:01:42.036Z,6.80
2017-06-08T03:04:16.519Z,6.07
2017-06-08T03:06:50.956Z,6.62
2017-06-08T03:09:25.461Z,8.27
2017-06-08T03:12:00.023Z,7.22
2017-06-08T03:14:34.564Z,7.25
2017-06-08T03:17:09.258Z,6.97
2017-06-08T03:19:44.474Z,7.70
2017-06-08T03:22:19.125Z,6.45
2017-06-08T03:24:53.642Z,7.12
2017-06-08T03:27:28.151Z,8.27
2017-06-08T03:30:02.659Z,8.85
2017-06-08T03:32:37.084Z,9.13
2017-06-08T03:35:11.939Z,7.93
2017-06-08T03:37:46.423Z,8.48
2017-06-08T03:40:21.015Z,9.27
2017-06-08T03:42:55.579Z,9.38
2017-06-08T03:45:30.025Z,8.32
2017-06-08T03:48:04.555Z,10.00
2017-06-08T03:50:39.888Z,8.65
2017-06-08T03:53:15.180Z,8.45
2017-06-08T03:55:49.954Z,8.52
2017-06-08T03:58:24.444Z,10.55
2017-06-08T04:00:58.976Z,10.30
2017-06-08T04:03:34.204Z,10.43
2017-06-08T04:06:08.704Z,9.45
2017-06-08T04:08:43.215Z,9.55
2017-06-08T04:11:18.492Z,9.05
2017-06-08T04:13:53.006Z,9.52
2017-06-08T04:16:28.245Z,8.43
2017-06-08T04:19:02.879Z,10.02
2017-06-08T04:21:37.400Z,9.95
2017-06-08T04:24:12.047Z,10.65
2017-06-08T04:26:46.571Z,10.55
2017-06-08T04:29:21.134Z,11.07
2017-06-08T04:31:55.700Z,10.93
2017-06-08T04:34:30.249Z,8.52
2017-06-08T04:37:04.732Z,9.68
2017-06-08T04:39:39.120Z,10.77
2017-06-08T04:42:13.660Z,9.70
2017-06-08T04:44:48.919Z,8.63
2017-06-08T04:47:24.778Z,10.00
2017-06-08T04:49:59.132Z,9.73
2017-06-08T04:52:33.700Z,10.70
2017-06-08T04:55:08.316Z,10.95
2017-06-08T04:57:43.456Z,9.10
2017-06-08T05:00:17.849Z,8.38
2017-06-08T05:02:52.389Z,8.05
2017-06-08T05:05:27.052Z,8.50
2017-06-08T05:08:01.508Z,7.55
2017-06-08T05:10:36.033Z,8.88
2017-06-08T05:13:10.512Z,8.68
2017-06-08T05:15:44.943Z,8.77
2017-06-08T05:18:19.548Z,9.48
2017-06-08T05:20:54.284Z,9.40
2017-06-08T05:23:28.783Z,7.25
2017-06-08T05:26:03.259Z,7.35
2017-06-08T05:28:37.845Z,7.05
2017-06-08T05:31:12.577Z,6.15
2017-06-08T05:33:46.952Z,7.25
2017-06-08T05:36:21.620Z,6.60
2017-06-08T05:38:56.237Z,6.32
2017-06-08T05:41:30.796Z,7.78
2017-06-08T05:44:05.980Z,7.95
2017-06-08T05:46:40.638Z,8.43
2017-06-08T05:49:15.128Z,6.75
2017-06-08T05:51:49.687Z,6.05
2017-06-08T05:54:24.326Z,8.25
2017-06-08T05:56:58.817Z,7.95
2017-06-08T05:59:33.316Z,6.53
2017-06-08T06:02:08.076Z,8.38
2017-06-08T06:04:42.451Z,6.85
2017-06-08T06:07:17.933Z,6.95
2017-06-08T06:09:53.768Z,7.40
2017-06-08T06:12:28.271Z,6.95
2017-06-08T06:15:02.764Z,6.30
2017-06-08T06:17:45.840Z,6.50
2017-06-08T06:23:48.391Z,8.15
2017-06-08T06:26:22.764Z,8.68
2017-06-08T06:28:57.395Z,7.70
2017-06-08T06:31:31.959Z,7.05
2017-06-08T06:34:06.638Z,9.13
2017-06-08T06:36:42.060Z,9.02
2017-06-08T06:39:16.527Z,9.88
2017-06-08T06:41:51.100Z,8.70
2017-06-08T06:47:24.037Z,9.05
2017-06-08T06:49:58.636Z,8.70
2017-06-08T06:52:33.300Z,9.95
2017-06-08T06:55:07.896Z,8.18
2017-06-08T06:57:42.456Z,8.57
2017-06-08T07:00:17.004Z,9.10
2017-06-08T07:02:51.589Z,8.82
2017-06-08T07:05:26.188Z,8.32
2017-06-08T07:08:00.733Z,7.85
2017-06-08T07:10:35.326Z,8.82
2017-06-08T07:16:14.253Z,10.38
2017-06-08T07:18:49.031Z,8.55
2017-06-08T07:21:23.428Z,8.77
2017-06-08T07:23:58.154Z,8.50
2017-06-08T07:26:32.654Z,8.07
2017-06-08T07:29:07.409Z,8.05
2017-06-08T07:31:41.998Z,8.20
2017-06-08T07:34:16.496Z,6.87
2017-06-08T07:36:51.028Z,7.47
2017-06-08T07:39:25.553Z,8.35
2017-06-08T07:42:00.056Z,8.13
2017-06-08T07:44:34.625Z,8.10
2017-06-08T07:47:09.149Z,7.57
2017-06-08T07:49:43.893Z,7.72
2017-06-08T07:52:19.385Z,7.72
2017-06-08T07:54:53.876Z,6.85
2017-06-08T07:57:28.379Z,7.57
2017-06-08T08:00:03.033Z,8.55
2017-06-08T08:02:49.637Z,8.65
2017-06-08T08:05:24.329Z,8.27
2017-06-08T08:07:59.534Z,8.40
2017-06-08T08:10:34.293Z,8.25
2017-06-08T08:13:08.898Z,7.40
2017-06-08T08:15:43.546Z,7.87
2017-06-08T08:18:18.064Z,7.72
2017-06-08T08:20:52.634Z,7.43
2017-06-08T08:23:27.091Z,8.18
2017-06-08T08:26:02.646Z,5.68
2017-06-08T08:28:39.101Z,7.00
2017-06-08T08:31:13.545Z,7.05
2017-06-08T08:33:48.029Z,6.30
2017-06-08T08:36:22.616Z,7.47
2017-06-08T08:38:57.142Z,6.10
2017-06-08T08:41:31.692Z,6.40
2017-06-08T08:44:06.226Z,6.40
2017-06-08T08:46:40.642Z,7.72
2017-06-08T08:49:15.181Z,6.43
2017-06-08T08:51:49.868Z,7.03
2017-06-08T08:54:24.393Z,6.65
2017-06-08T08:56:58.976Z,7.55
2017-06-08T08:59:33.472Z,7.07
2017-06-08T09:02:08.226Z,7.07
2017-06-08T09:04:43.508Z,7.35
2017-06-08T09:07:18.986Z,6.85
2017-06-08T09:09:53.367Z,7.40
2017-06-08T09:12:28.034Z,7.03
2017-06-08T09:15:03.558Z,6.85
2017-06-08T09:17:38.170Z,5.68
2017-06-08T09:20:12.665Z,6.60
2017-06-08T09:22:48.284Z,6.25
2017-06-08T09:25:22.653Z,5.90
2017-06-08T09:27:57.184Z,6.30
2017-06-08T09:30:32.425Z,5.18
2017-06-08T09:33:06.877Z,6.53
2017-06-08T09:35:41.369Z,7.07
2017-06-08T09:38:16.093Z,6.68
2017-06-08T09:40:50.593Z,6.07
2017-06-08T09:43:25.361Z,5.55
2017-06-08T09:45:59.877Z,6.03
2017-06-08T09:48:35.141Z,6.30
2017-06-08T09:51:10.433Z,6.18
2017-06-08T09:53:44.806Z,5.87
2017-06-08T09:56:19.301Z,6.10
2017-06-08T09:58:54.337Z,5.85
2017-06-08T10:01:28.722Z,5.65
2017-06-08T10:04:03.305Z,5.60
2017-06-08T10:06:38.529Z,6.10
2017-06-08T10:09:12.937Z,5.45
2017-06-08T10:11:47.402Z,5.80
2017-06-08T10:14:22.330Z,5.12
2017-06-08T10:16:56.885Z,8.07
2017-06-08T10:19:32.029Z,5.70
2017-06-08T10:22:06.578Z,5.30
2017-06-08T10:24:41.901Z,6.30
2017-06-08T10:27:16.366Z,5.60
2017-06-08T10:29:51.001Z,8.68
2017-06-08T10:32:26.368Z,5.93
2017-06-08T10:35:01.770Z,6.05
2017-06-08T10:37:37.133Z,5.40
2017-06-08T10:40:11.797Z,5.32
2017-06-08T10:42:46.299Z,4.65
2017-06-08T10:45:21.009Z,5.28
2017-06-08T10:47:55.537Z,5.10
2017-06-08T10:50:30.097Z,5.60
2017-06-08T10:53:04.597Z,5.40
2017-06-08T10:55:39.349Z,7.85
2017-06-08T10:58:13.758Z,5.30
2017-06-08T11:00:48.329Z,5.55
2017-06-08T11:03:22.842Z,7.10
2017-06-08T11:05:57.485Z,6.03
2017-06-08T11:08:32.441Z,7.68
2017-06-08T11:11:07.920Z,7.53
2017-06-08T11:13:42.544Z,8.27
2017-06-08T11:16:17.653Z,9.15
2017-06-08T11:18:52.056Z,9.23
2017-06-08T11:21:27.350Z,9.57
2017-06-08T11:24:01.925Z,9.43
2017-06-08T11:26:36.420Z,8.68
2017-06-08T11:29:10.983Z,9.40
2017-06-08T11:31:46.370Z,9.40
2017-06-08T11:34:20.805Z,7.47
2017-06-08T11:36:55.430Z,9.30
2017-06-08T11:39:29.933Z,7.22
2017-06-08T11:42:07.186Z,6.00
2017-06-08T11:44:43.240Z,7.00
2017-06-08T11:47:17.800Z,9.00
2017-06-08T11:49:52.308Z,8.75
2017-06-08T11:52:27.146Z,7.00
2017-06-08T11:55:01.726Z,8.38
2017-06-08T11:57:36.569Z,8.18
2017-06-08T12:00:11.076Z,8.63
2017-06-08T12:02:45.710Z,8.57
2017-06-08T12:05:21.014Z,8.05
2017-06-08T12:07:56.212Z,8.23
2017-06-08T12:10:30.785Z,7.03
2017-06-08T12:13:05.369Z,7.40
2017-06-08T12:15:39.932Z,9.70
2017-06-08T12:18:14.504Z,7.75
2017-06-08T12:20:48.873Z,8.50
2017-06-08T12:23:24.142Z,7.10
2017-06-08T12:25:58.619Z,7.00
2017-06-08T12:28:33.393Z,7.62
2017-06-08T12:31:07.897Z,7.03
2017-06-08T12:33:42.319Z,7.90
2017-06-08T12:36:16.988Z,6.70
2017-06-08T12:38:51.393Z,7.57
2017-06-08T12:41:26.773Z,7.03
2017-06-08T12:44:01.648Z,7.10
2017-06-08T12:46:36.862Z,8.23
2017-06-08T12:49:12.229Z,6.18
2017-06-08T12:51:47.161Z,7.00
2017-06-08T12:54:22.400Z,6.45
2017-06-08T12:56:56.884Z,6.85
2017-06-08T12:59:31.342Z,7.05
2017-06-08T13:02:06.629Z,7.00
2017-06-08T13:04:42.129Z,5.40
2017-06-08T13:07:16.598Z,6.60
2017-06-08T13:09:51.198Z,6.35
2017-06-08T13:12:25.679Z,8.00
2017-06-08T13:15:00.221Z,7.43
2017-06-08T13:17:34.907Z,7.50
2017-06-08T13:20:09.649Z,6.65
2017-06-08T13:22:44.149Z,8.10
2017-06-08T13:25:18.678Z,7.20
2017-06-08T13:27:53.994Z,6.40
2017-06-08T13:30:28.614Z,6.65
2017-06-08T13:33:03.144Z,6.65
2017-06-08T13:35:37.761Z,5.95
2017-06-08T13:38:12.231Z,6.18
2017-06-08T13:40:47.023Z,6.25
2017-06-08T13:43:21.557Z,6.40
2017-06-08T13:45:55.999Z,6.18
2017-06-08T13:48:30.518Z,5.90
2017-06-08T13:51:05.243Z,5.05
2017-06-08T13:53:39.735Z,5.10
2017-06-08T13:56:15.212Z,5.65
2017-06-08T13:58:49.609Z,5.62
2017-06-08T14:01:24.084Z,5.70
2017-06-08T14:03:58.580Z,6.20
2017-06-08T14:06:33.141Z,5.15
2017-06-08T14:09:07.704Z,5.75
2017-06-08T14:11:42.322Z,5.12
2017-06-08T14:14:16.838Z,5.47
2017-06-08T14:16:52.281Z,5.82
2017-06-08T14:19:26.673Z,5.20
2017-06-08T14:22:01.221Z,6.18
2017-06-08T14:24:35.779Z,5.53
2017-06-08T14:27:10.444Z,5.85
2017-06-08T14:29:45.006Z,5.97
2017-06-08T14:32:20.291Z,5.65
2017-06-08T14:34:55.336Z,5.25
2017-06-08T14:37:29.930Z,5.93
2017-06-08T14:40:04.430Z,4.62
2017-06-08T14:42:39.108Z,5.75
2017-06-08T14:45:13.671Z,6.03
2017-06-08T14:47:48.469Z,6.18
2017-06-08T14:50:23.030Z,5.18
2017-06-08T14:52:57.766Z,5.53
2017-06-08T14:55:32.440Z,5.07
2017-06-08T14:58:07.077Z,6.35
2017-06-08T15:00:41.640Z,5.50
2017-06-08T15:03:16.253Z,6.45
2017-06-08T15:05:50.726Z,5.78
2017-06-08T15:08:26.020Z,5.03
2017-06-08T15:11:00.382Z,6.00
2017-06-08T15:13:35.296Z,5.40
2017-06-08T15:16:10.461Z,5.50
2017-06-08T15:18:44.944Z,5.60
2017-06-08T15:21:19.522Z,6.30
2017-06-08T15:23:53.851Z,6.45
2017-06-08T15:26:28.419Z,6.57
2017-06-08T15:29:04.453Z,7.20
2017-06-08T15:31:38.909Z,7.97
2017-06-08T15:34:13.404Z,7.87
2017-06-08T15:36:48.171Z,7.62
2017-06-08T15:39:23.365Z,9.13
2017-06-08T15:41:57.949Z,9.60
2017-06-08T15:44:32.466Z,11.00
2017-06-08T15:47:07.593Z,9.82
2017-06-08T15:49:43.061Z,12.30
2017-06-08T15:52:17.481Z,10.40
2017-06-08T15:54:52.347Z,12.50
2017-06-08T15:57:27.652Z,12.73
2017-06-08T16:00:02.501Z,12.98
2017-06-08T16:02:37.926Z,12.27
2017-06-08T16:05:12.514Z,12.93
2017-06-08T16:07:47.101Z,13.60
2017-06-08T16:10:21.716Z,14.55
2017-06-08T16:12:57.026Z,15.77
2017-06-08T16:15:32.619Z,17.80
2017-06-08T16:18:07.201Z,17.00
2017-06-08T16:20:41.965Z,19.33
2017-06-08T16:23:16.345Z,17.83
2017-06-08T16:25:50.909Z,20.35
2017-06-08T16:28:26.297Z,20.12
2017-06-08T16:31:00.919Z,21.45
2017-06-08T16:33:35.437Z,20.33
2017-06-08T16:36:09.866Z,21.73
2017-06-08T16:38:44.395Z,21.02
2017-06-08T16:41:19.080Z,20.23
2017-06-08T16:43:53.657Z,20.50
2017-06-08T16:46:28.216Z,21.30
2017-06-08T16:49:02.691Z,21.62
2017-06-08T16:51:37.282Z,23.92
2017-06-08T16:54:11.848Z,22.62
2017-06-08T16:56:46.404Z,23.92
2017-06-08T16:59:20.941Z,22.95
2017-06-08T17:01:55.502Z,23.55
2017-06-08T17:04:30.833Z,24.95
2017-06-08T17:07:06.020Z,25.20
2017-06-08T17:09:40.398Z,25.30
2017-06-08T17:12:16.082Z,22.90
2017-06-08T17:14:50.552Z,25.52
2017-06-08T17:17:25.146Z,24.37
2017-06-08T17:19:59.717Z,24.98
2017-06-08T17:22:34.534Z,26.87
2017-06-08T17:25:09.025Z,25.40
2017-06-08T17:27:43.624Z,24.60
2017-06-08T17:30:18.130Z,26.80
2017-06-08T17:32:52.697Z,29.10
2017-06-08T17:35:27.180Z,30.77
2017-06-08T17:38:02.630Z,28.35
2017-06-08T17:40:37.913Z,35.92
2017-06-08T17:43:12.685Z,31.40
2017-06-08T17:45:47.201Z,29.08
2017-06-08T17:48:21.876Z,32.00
2017-06-08T17:50:56.553Z,33.03
2017-06-08T17:53:30.988Z,31.55
2017-06-08T17:56:05.373Z,31.58
2017-06-08T17:58:40.222Z,32.08
2017-06-08T18:01:14.851Z,32.42
2017-06-08T18:03:49.501Z,28.52
2017-06-08T18:06:24.069Z,32.45
2017-06-08T18:08:58.673Z,30.52
2017-06-08T18:11:33.105Z,32.60
2017-06-08T18:14:07.984Z,32.85
2017-06-08T18:16:43.281Z,32.20
2017-06-08T18:19:17.823Z,31.92
2017-06-08T18:21:52.198Z,33.55
2017-06-08T18:24:26.753Z,32.90
2017-06-08T18:27:01.340Z,31.98
2017-06-08T18:29:35.889Z,33.40
2017-06-08T18:32:10.412Z,31.42
2017-06-08T18:34:44.912Z,33.25
2017-06-08T18:37:19.475Z,32.75
2017-06-08T18:39:54.213Z,31.90
2017-06-08T18:42:28.733Z,34.03
2017-06-08T18:45:04.398Z,33.58
2017-06-08T18:47:39.677Z,32.22
2017-06-08T18:50:14.057Z,33.78
2017-06-08T18:52:48.620Z,34.10
2017-06-08T18:55:24.006Z,36.83
2017-06-08T18:57:58.486Z,34.20
2017-06-08T19:00:33.082Z,34.08
2017-06-08T19:03:07.579Z,33.75
2017-06-08T19:05:42.943Z,33.65
2017-06-08T19:08:17.796Z,34.85
2017-06-08T19:10:53.074Z,35.45
2017-06-08T19:13:27.475Z,34.47
2017-06-08T19:16:03.044Z,32.28
2017-06-08T19:18:37.532Z,33.90
2017-06-08T19:21:11.955Z,33.25
2017-06-08T19:23:46.497Z,33.42
2017-06-08T19:26:20.989Z,33.30
2017-06-08T19:28:55.534Z,34.75
2017-06-08T19:31:30.896Z,35.17
2017-06-08T19:34:05.489Z,32.20
2017-06-08T19:36:41.139Z,34.00
2017-06-08T19:39:16.376Z,33.72
2017-06-08T19:41:51.033Z,32.08
2017-06-08T19:44:25.614Z,29.75
2017-06-08T19:47:00.204Z,32.85
2017-06-08T19:49:34.734Z,31.73
2017-06-08T19:52:09.329Z,31.42
2017-06-08T19:54:43.877Z,30.62
2017-06-08T19:57:18.761Z,29.37
2017-06-08T19:59:53.398Z,30.12
2017-06-08T20:02:28.043Z,30.25
2017-06-08T20:05:02.579Z,29.75
2017-06-08T20:07:37.226Z,30.05
2017-06-08T20:10:11.786Z,28.87
2017-06-08T20:12:47.385Z,30.60
2017-06-08T20:15:22.638Z,31.92
2017-06-08T20:17:57.247Z,31.37
2017-06-08T20:20:31.804Z,31.45
2017-06-08T20:23:06.365Z,28.75
2017-06-08T20:25:40.880Z,31.37
2017-06-08T20:28:16.957Z,29.15
2017-06-08T20:30:51.398Z,32.33
2017-06-08T20:33:26.233Z,31.73
2017-06-08T20:36:00.785Z,33.80
2017-06-08T20:38:35.313Z,34.47
2017-06-08T20:41:09.813Z,30.35
2017-06-08T20:43:45.319Z,30.75
2017-06-08T20:46:19.669Z,31.10
2017-06-08T20:48:54.356Z,31.15
2017-06-08T20:51:29.736Z,29.67
2017-06-08T20:54:04.308Z,30.50
2017-06-08T20:56:38.837Z,32.45
2017-06-08T20:59:13.296Z,29.70
2017-06-08T21:01:47.962Z,29.35
2017-06-08T21:04:22.314Z,30.20
2017-06-08T21:06:56.941Z,31.15
2017-06-08T21:09:31.477Z,30.48
2017-06-08T21:12:06.095Z,28.95
2017-06-08T21:14:40.606Z,30.60
2017-06-08T21:17:15.203Z,30.50
2017-06-08T21:19:49.797Z,29.40
2017-06-08T21:22:24.558Z,28.55
2017-06-08T21:24:58.997Z,29.55
2017-06-08T21:27:33.581Z,27.45
2017-06-08T21:30:08.165Z,28.50
2017-06-08T21:32:42.737Z,26.73
2017-06-08T21:35:17.221Z,27.37
2017-06-08T21:37:52.801Z,25.77
2017-06-08T21:40:27.300Z,27.37
2017-06-08T21:43:01.879Z,26.23
2017-06-08T21:45:36.385Z,27.40
2017-06-08T21:48:11.011Z,27.70
2017-06-08T21:50:45.594Z,25.17
2017-06-08T21:53:20.961Z,26.30
2017-06-08T21:55:55.324Z,27.20
2017-06-08T21:58:29.918Z,26.48
2017-06-08T22:01:04.389Z,24.67
2017-06-08T22:03:38.952Z,25.52
2017-06-08T22:06:13.496Z,27.23
2017-06-08T22:08:48.275Z,23.65
2017-06-08T22:11:22.780Z,23.83
2017-06-08T22:13:57.276Z,21.62
2017-06-08T22:16:31.790Z,24.50
2017-06-08T22:19:06.409Z,25.33
2017-06-08T22:21:40.969Z,22.83
2017-06-08T22:24:15.503Z,22.20
2017-06-08T22:26:50.028Z,22.75
2017-06-08T22:29:24.584Z,21.90
2017-06-08T22:31:59.951Z,22.35
2017-06-08T22:34:34.522Z,22.08
2017-06-08T22:37:09.082Z,21.45
2017-06-08T22:39:43.700Z,20.60
2017-06-08T22:42:18.233Z,19.70
2017-06-08T22:44:52.849Z,20.35
2017-06-08T22:47:27.366Z,19.17
2017-06-08T22:50:02.437Z,19.02
2017-06-08T22:52:36.872Z,20.02
2017-06-08T22:55:11.418Z,21.55
2017-06-08T22:57:45.929Z,18.25
2017-06-08T23:00:20.653Z,20.00
2017-06-08T23:02:55.183Z,16.95
2017-06-08T23:05:29.663Z,19.00
2017-06-08T23:08:04.198Z,18.45
2017-06-08T23:10:38.796Z,18.85
2017-06-08T23:13:14.072Z,17.27
2017-06-08T23:15:48.528Z,18.33
2017-06-08T23:18:23.093Z,17.80
2017-06-08T23:20:57.677Z,18.15
2017-06-08T23:23:32.216Z,18.83
2017-06-08T23:26:06.693Z,18.90
2017-06-08T23:28:41.215Z,17.35
2017-06-08T23:31:15.725Z,17.90
2017-06-08T23:33:50.461Z,19.17
2017-06-08T23:36:24.968Z,18.02
2017-06-08T23:38:59.397Z,18.33
2017-06-08T23:41:33.962Z,16.77
2017-06-08T23:44:08.537Z,18.90
2017-06-08T23:46:44.094Z,17.27
2017-06-08T23:49:18.453Z,17.75
2017-06-08T23:51:52.826Z,16.67
2017-06-08T23:54:27.397Z,17.62
2017-06-08T23:57:01.973Z,17.67
2017-06-08T23:59:36.522Z,17.00
